sensor_id;sensor_type;location;lat;lon;timestamp;temperature;humidity
8953;DHT22;4511;50.890;8.054;2024-02-23T00:01:31;6.30;99.90
8953;DHT22;4511;50.890;8.054;2024-02-23T00:03:58;6.20;99.90
8953;DHT22;4511;50.890;8.054;2024-02-23T00:06:24;6.30;99.90
8953;DHT22;4511;50.890;8.054;2024-02-23T00:08:53;6.30;99.90
8953;DHT22;4511;50.890;8.054;2024-02-23T00:11:21;6.30;99.90
8953;DHT22;4511;50.890;8.054;2024-02-23T00:13:48;6.20;99.90
8953;DHT22;4511;50.890;8.054;2024-02-23T00:16:14;6.20;99.90
8953;DHT22;4511;50.890;8.054;2024-02-23T00:18:41;6.10;99.90
8953;DHT22;4511;50.890;8.054;2024-02-23T00:21:08;6.10;99.90
8953;DHT22;4511;50.890;8.054;2024-02-23T00:23:35;6.10;99.90
8953;DHT22;4511;50.890;8.054;2024-02-23T00:26:01;6.10;99.90
8953;DHT22;4511;50.890;8.054;2024-02-23T00:28:30;6.10;99.90
8953;DHT22;4511;50.890;8.054;2024-02-23T00:30:56;6.00;99.90
8953;DHT22;4511;50.890;8.054;2024-02-23T00:33:23;6.00;99.90
8953;DHT22;4511;50.890;8.054;2024-02-23T00:35:50;6.00;99.90
8953;DHT22;4511;50.890;8.054;2024-02-23T00:38:16;6.00;99.90
8953;DHT22;4511;50.890;8.054;2024-02-23T00:40:43;6.00;99.90
8953;DHT22;4511;50.890;8.054;2024-02-23T00:43:10;5.90;99.90
8953;DHT22;4511;50.890;8.054;2024-02-23T00:45:38;5.60;99.90
8953;DHT22;4511;50.890;8.054;2024-02-23T00:48:07;5.60;99.90
8953;DHT22;4511;50.890;8.054;2024-02-23T00:50:33;5.60;99.90
8953;DHT22;4511;50.890;8.054;2024-02-23T00:53:00;5.70;99.90
8953;DHT22;4511;50.890;8.054;2024-02-23T00:55:27;5.60;99.90
8953;DHT22;4511;50.890;8.054;2024-02-23T00:57:53;5.50;99.90
8953;DHT22;4511;50.890;8.054;2024-02-23T01:00:20;5.40;99.90
8953;DHT22;4511;50.890;8.054;2024-02-23T01:02:48;5.60;99.90
8953;DHT22;4511;50.890;8.054;2024-02-23T01:05:15;5.60;99.90
8953;DHT22;4511;50.890;8.054;2024-02-23T01:07:42;5.40;99.90
8953;DHT22;4511;50.890;8.054;2024-02-23T01:10:09;5.40;99.90
8953;DHT22;4511;50.890;8.054;2024-02-23T01:12:36;5.40;99.90
8953;DHT22;4511;50.890;8.054;2024-02-23T01:15:03;5.50;99.90
8953;DHT22;4511;50.890;8.054;2024-02-23T01:17:30;5.50;99.90
8953;DHT22;4511;50.890;8.054;2024-02-23T01:19:58;5.50;99.90
8953;DHT22;4511;50.890;8.054;2024-02-23T01:22:25;5.40;99.90
8953;DHT22;4511;50.890;8.054;2024-02-23T01:24:52;5.40;99.90
8953;DHT22;4511;50.890;8.054;2024-02-23T01:27:18;5.40;99.90
8953;DHT22;4511;50.890;8.054;2024-02-23T01:29:45;5.40;99.90
8953;DHT22;4511;50.890;8.054;2024-02-23T01:32:12;5.40;99.90
8953;DHT22;4511;50.890;8.054;2024-02-23T01:34:39;5.30;99.90
8953;DHT22;4511;50.890;8.054;2024-02-23T01:37:07;5.30;99.90
8953;DHT22;4511;50.890;8.054;2024-02-23T01:39:34;5.20;99.90
8953;DHT22;4511;50.890;8.054;2024-02-23T01:42:01;5.10;99.90
8953;DHT22;4511;50.890;8.054;2024-02-23T01:44:28;5.10;99.90
8953;DHT22;4511;50.890;8.054;2024-02-23T01:46:55;5.20;99.90
8953;DHT22;4511;50.890;8.054;2024-02-23T01:49:22;5.20;99.90
8953;DHT22;4511;50.890;8.054;2024-02-23T01:51:55;5.30;99.90
8953;DHT22;4511;50.890;8.054;2024-02-23T01:54:23;5.30;99.90
8953;DHT22;4511;50.890;8.054;2024-02-23T01:56:50;5.20;99.90
8953;DHT22;4511;50.890;8.054;2024-02-23T01:59:18;5.10;99.90
8953;DHT22;4511;50.890;8.054;2024-02-23T02:01:45;5.20;99.90
8953;DHT22;4511;50.890;8.054;2024-02-23T02:04:12;5.10;99.90
8953;DHT22;4511;50.890;8.054;2024-02-23T02:06:39;5.10;99.90
8953;DHT22;4511;50.890;8.054;2024-02-23T02:09:06;5.10;99.90
8953;DHT22;4511;50.890;8.054;2024-02-23T02:11:34;5.20;99.90
8953;DHT22;4511;50.890;8.054;2024-02-23T02:14:02;5.10;99.90
8953;DHT22;4511;50.890;8.054;2024-02-23T02:16:28;5.10;99.90
8953;DHT22;4511;50.890;8.054;2024-02-23T02:18:55;5.10;99.90
8953;DHT22;4511;50.890;8.054;2024-02-23T02:21:22;5.10;99.90
8953;DHT22;4511;50.890;8.054;2024-02-23T02:23:50;5.10;99.90
8953;DHT22;4511;50.890;8.054;2024-02-23T02:26:17;5.10;99.90
8953;DHT22;4511;50.890;8.054;2024-02-23T02:28:46;5.00;99.90
8953;DHT22;4511;50.890;8.054;2024-02-23T02:31:12;5.00;99.90
8953;DHT22;4511;50.890;8.054;2024-02-23T02:33:40;5.00;99.90
8953;DHT22;4511;50.890;8.054;2024-02-23T02:36:07;5.00;99.90
8953;DHT22;4511;50.890;8.054;2024-02-23T02:38:33;4.90;99.90
8953;DHT22;4511;50.890;8.054;2024-02-23T02:41:00;4.80;99.90
8953;DHT22;4511;50.890;8.054;2024-02-23T02:43:27;4.80;99.90
8953;DHT22;4511;50.890;8.054;2024-02-23T02:45:55;4.80;99.90
8953;DHT22;4511;50.890;8.054;2024-02-23T02:48:22;4.70;99.90
8953;DHT22;4511;50.890;8.054;2024-02-23T02:50:49;4.80;99.90
8953;DHT22;4511;50.890;8.054;2024-02-23T02:53:16;4.80;99.90
8953;DHT22;4511;50.890;8.054;2024-02-23T02:55:44;4.80;99.90
8953;DHT22;4511;50.890;8.054;2024-02-23T02:58:11;4.70;99.90
8953;DHT22;4511;50.890;8.054;2024-02-23T03:00:38;4.60;99.90
8953;DHT22;4511;50.890;8.054;2024-02-23T03:03:06;4.60;99.90
8953;DHT22;4511;50.890;8.054;2024-02-23T03:05:33;4.70;99.90
8953;DHT22;4511;50.890;8.054;2024-02-23T03:08:00;4.70;99.90
8953;DHT22;4511;50.890;8.054;2024-02-23T03:10:26;4.80;99.90
8953;DHT22;4511;50.890;8.054;2024-02-23T03:12:53;4.70;99.90
8953;DHT22;4511;50.890;8.054;2024-02-23T03:15:20;4.80;99.90
8953;DHT22;4511;50.890;8.054;2024-02-23T03:17:46;4.90;99.90
8953;DHT22;4511;50.890;8.054;2024-02-23T03:20:15;4.90;99.90
8953;DHT22;4511;50.890;8.054;2024-02-23T03:22:42;4.90;99.90
8953;DHT22;4511;50.890;8.054;2024-02-23T03:25:09;4.70;99.90
8953;DHT22;4511;50.890;8.054;2024-02-23T03:27:36;4.60;99.90
8953;DHT22;4511;50.890;8.054;2024-02-23T03:30:04;4.50;99.90
8953;DHT22;4511;50.890;8.054;2024-02-23T03:32:33;4.60;99.90
8953;DHT22;4511;50.890;8.054;2024-02-23T03:35:02;4.50;99.90
8953;DHT22;4511;50.890;8.054;2024-02-23T03:37:31;4.60;99.90
8953;DHT22;4511;50.890;8.054;2024-02-23T03:39:57;4.50;99.90
8953;DHT22;4511;50.890;8.054;2024-02-23T03:42:25;4.60;99.90
8953;DHT22;4511;50.890;8.054;2024-02-23T03:44:51;4.60;99.90
8953;DHT22;4511;50.890;8.054;2024-02-23T03:47:18;4.60;99.90
8953;DHT22;4511;50.890;8.054;2024-02-23T03:49:45;4.60;99.90
8953;DHT22;4511;50.890;8.054;2024-02-23T03:52:12;4.50;99.90
8953;DHT22;4511;50.890;8.054;2024-02-23T03:54:40;4.50;99.90
8953;DHT22;4511;50.890;8.054;2024-02-23T04:00:17;4.50;99.90
8953;DHT22;4511;50.890;8.054;2024-02-23T04:02:44;4.60;99.90
8953;DHT22;4511;50.890;8.054;2024-02-23T04:05:12;4.50;99.90
8953;DHT22;4511;50.890;8.054;2024-02-23T04:07:39;4.60;99.90
8953;DHT22;4511;50.890;8.054;2024-02-23T04:10:08;4.60;99.90
8953;DHT22;4511;50.890;8.054;2024-02-23T04:12:35;4.50;99.90
8953;DHT22;4511;50.890;8.054;2024-02-23T04:15:01;4.60;99.90
8953;DHT22;4511;50.890;8.054;2024-02-23T04:17:28;4.60;99.90
8953;DHT22;4511;50.890;8.054;2024-02-23T04:19:55;4.70;99.90
8953;DHT22;4511;50.890;8.054;2024-02-23T04:22:21;4.70;99.90
8953;DHT22;4511;50.890;8.054;2024-02-23T04:24:48;4.60;99.90
8953;DHT22;4511;50.890;8.054;2024-02-23T04:27:16;4.60;99.90
8953;DHT22;4511;50.890;8.054;2024-02-23T04:29:43;4.70;99.90
8953;DHT22;4511;50.890;8.054;2024-02-23T04:32:10;4.70;99.90
8953;DHT22;4511;50.890;8.054;2024-02-23T04:34:36;4.70;99.90
8953;DHT22;4511;50.890;8.054;2024-02-23T04:37:03;4.60;99.90
8953;DHT22;4511;50.890;8.054;2024-02-23T04:39:30;4.70;99.90
8953;DHT22;4511;50.890;8.054;2024-02-23T04:41:56;4.70;99.90
8953;DHT22;4511;50.890;8.054;2024-02-23T04:44:25;4.70;99.90
8953;DHT22;4511;50.890;8.054;2024-02-23T04:46:51;4.80;99.90
8953;DHT22;4511;50.890;8.054;2024-02-23T04:49:18;4.80;99.90
8953;DHT22;4511;50.890;8.054;2024-02-23T04:51:45;4.80;99.90
8953;DHT22;4511;50.890;8.054;2024-02-23T04:54:11;4.90;99.90
8953;DHT22;4511;50.890;8.054;2024-02-23T04:56:38;4.90;99.90
8953;DHT22;4511;50.890;8.054;2024-02-23T04:59:05;4.80;99.90
8953;DHT22;4511;50.890;8.054;2024-02-23T05:01:36;4.80;99.90
8953;DHT22;4511;50.890;8.054;2024-02-23T05:04:03;4.80;99.90
8953;DHT22;4511;50.890;8.054;2024-02-23T05:06:30;4.70;99.90
8953;DHT22;4511;50.890;8.054;2024-02-23T05:08:57;4.70;99.90
8953;DHT22;4511;50.890;8.054;2024-02-23T05:11:23;4.70;99.90
8953;DHT22;4511;50.890;8.054;2024-02-23T05:13:50;4.70;99.90
8953;DHT22;4511;50.890;8.054;2024-02-23T05:16:17;4.70;99.90
8953;DHT22;4511;50.890;8.054;2024-02-23T05:18:45;4.80;99.90
8953;DHT22;4511;50.890;8.054;2024-02-23T05:21:12;4.70;99.90
8953;DHT22;4511;50.890;8.054;2024-02-23T05:23:39;4.70;99.90
8953;DHT22;4511;50.890;8.054;2024-02-23T05:26:05;4.70;99.90
8953;DHT22;4511;50.890;8.054;2024-02-23T05:28:32;4.70;99.90
8953;DHT22;4511;50.890;8.054;2024-02-23T05:30:59;4.70;99.90
8953;DHT22;4511;50.890;8.054;2024-02-23T05:33:29;4.70;99.90
8953;DHT22;4511;50.890;8.054;2024-02-23T05:35:57;4.60;99.90
8953;DHT22;4511;50.890;8.054;2024-02-23T05:38:24;4.50;99.90
8953;DHT22;4511;50.890;8.054;2024-02-23T05:40:50;4.50;99.90
8953;DHT22;4511;50.890;8.054;2024-02-23T05:43:17;4.50;99.90
8953;DHT22;4511;50.890;8.054;2024-02-23T05:45:44;4.50;99.90
8953;DHT22;4511;50.890;8.054;2024-02-23T05:48:10;4.50;99.90
8953;DHT22;4511;50.890;8.054;2024-02-23T05:50:38;4.50;99.90
8953;DHT22;4511;50.890;8.054;2024-02-23T05:53:06;4.50;99.90
8953;DHT22;4511;50.890;8.054;2024-02-23T05:55:33;4.50;99.90
8953;DHT22;4511;50.890;8.054;2024-02-23T05:57:59;4.50;99.90
8953;DHT22;4511;50.890;8.054;2024-02-23T06:00:26;4.50;99.90
8953;DHT22;4511;50.890;8.054;2024-02-23T06:02:53;4.50;99.90
8953;DHT22;4511;50.890;8.054;2024-02-23T06:05:19;4.50;99.90
8953;DHT22;4511;50.890;8.054;2024-02-23T06:07:46;4.50;99.90
8953;DHT22;4511;50.890;8.054;2024-02-23T06:10:14;4.40;99.90
8953;DHT22;4511;50.890;8.054;2024-02-23T06:12:41;4.90;99.90
8953;DHT22;4511;50.890;8.054;2024-02-23T06:15:08;4.60;99.90
8953;DHT22;4511;50.890;8.054;2024-02-23T06:17:35;4.50;99.90
8953;DHT22;4511;50.890;8.054;2024-02-23T06:20:02;4.40;99.90
8953;DHT22;4511;50.890;8.054;2024-02-23T06:22:29;4.50;99.90
8953;DHT22;4511;50.890;8.054;2024-02-23T06:24:56;4.50;99.90
8953;DHT22;4511;50.890;8.054;2024-02-23T06:27:24;4.50;99.90
8953;DHT22;4511;50.890;8.054;2024-02-23T06:29:53;4.50;99.90
8953;DHT22;4511;50.890;8.054;2024-02-23T06:32:21;4.50;99.90
8953;DHT22;4511;50.890;8.054;2024-02-23T06:34:47;4.50;99.90
8953;DHT22;4511;50.890;8.054;2024-02-23T06:37:14;4.50;99.90
8953;DHT22;4511;50.890;8.054;2024-02-23T06:39:41;4.50;99.90
8953;DHT22;4511;50.890;8.054;2024-02-23T06:42:07;4.50;99.90
8953;DHT22;4511;50.890;8.054;2024-02-23T06:44:35;4.50;99.90
8953;DHT22;4511;50.890;8.054;2024-02-23T06:47:02;4.50;99.90
8953;DHT22;4511;50.890;8.054;2024-02-23T06:49:29;4.50;99.90
8953;DHT22;4511;50.890;8.054;2024-02-23T06:51:55;4.50;99.90
8953;DHT22;4511;50.890;8.054;2024-02-23T06:54:22;4.50;99.90
8953;DHT22;4511;50.890;8.054;2024-02-23T06:56:49;4.50;99.90
8953;DHT22;4511;50.890;8.054;2024-02-23T06:59:15;4.50;99.90
8953;DHT22;4511;50.890;8.054;2024-02-23T07:01:50;4.50;99.90
8953;DHT22;4511;50.890;8.054;2024-02-23T07:04:17;4.60;99.90
8953;DHT22;4511;50.890;8.054;2024-02-23T07:06:44;4.60;99.90
8953;DHT22;4511;50.890;8.054;2024-02-23T07:09:11;4.60;99.90
8953;DHT22;4511;50.890;8.054;2024-02-23T07:11:39;4.70;99.90
8953;DHT22;4511;50.890;8.054;2024-02-23T07:14:07;4.70;99.90
8953;DHT22;4511;50.890;8.054;2024-02-23T07:16:37;4.70;99.90
8953;DHT22;4511;50.890;8.054;2024-02-23T07:19:06;4.80;99.90
8953;DHT22;4511;50.890;8.054;2024-02-23T07:21:32;4.80;99.90
8953;DHT22;4511;50.890;8.054;2024-02-23T07:23:59;4.90;99.90
8953;DHT22;4511;50.890;8.054;2024-02-23T07:26:26;5.00;99.90
8953;DHT22;4511;50.890;8.054;2024-02-23T07:28:53;5.00;99.90
8953;DHT22;4511;50.890;8.054;2024-02-23T07:31:20;5.10;99.90
8953;DHT22;4511;50.890;8.054;2024-02-23T07:33:47;5.10;99.90
8953;DHT22;4511;50.890;8.054;2024-02-23T07:36:15;5.10;99.90
8953;DHT22;4511;50.890;8.054;2024-02-23T07:38:42;5.20;99.90
8953;DHT22;4511;50.890;8.054;2024-02-23T07:41:09;5.10;99.90
8953;DHT22;4511;50.890;8.054;2024-02-23T07:43:36;5.10;99.90
8953;DHT22;4511;50.890;8.054;2024-02-23T07:46:03;5.20;99.90
8953;DHT22;4511;50.890;8.054;2024-02-23T07:48:34;5.20;99.90
8953;DHT22;4511;50.890;8.054;2024-02-23T07:51:00;5.20;99.90
8953;DHT22;4511;50.890;8.054;2024-02-23T07:53:29;5.20;99.90
8953;DHT22;4511;50.890;8.054;2024-02-23T07:55:55;5.30;99.90
8953;DHT22;4511;50.890;8.054;2024-02-23T07:58:24;5.30;99.90
8953;DHT22;4511;50.890;8.054;2024-02-23T08:00:51;5.30;99.90
8953;DHT22;4511;50.890;8.054;2024-02-23T08:03:18;5.30;99.90
8953;DHT22;4511;50.890;8.054;2024-02-23T08:05:45;5.20;99.90
8953;DHT22;4511;50.890;8.054;2024-02-23T08:08:12;5.20;99.90
8953;DHT22;4511;50.890;8.054;2024-02-23T08:10:40;5.20;99.90
8953;DHT22;4511;50.890;8.054;2024-02-23T08:13:07;5.30;99.90
8953;DHT22;4511;50.890;8.054;2024-02-23T08:15:35;5.40;99.90
8953;DHT22;4511;50.890;8.054;2024-02-23T08:18:02;5.50;99.90
8953;DHT22;4511;50.890;8.054;2024-02-23T08:20:29;5.40;99.90
8953;DHT22;4511;50.890;8.054;2024-02-23T08:22:56;5.40;99.90
8953;DHT22;4511;50.890;8.054;2024-02-23T08:25:22;5.40;99.90
8953;DHT22;4511;50.890;8.054;2024-02-23T08:27:50;5.40;99.90
8953;DHT22;4511;50.890;8.054;2024-02-23T08:30:17;5.40;99.90
8953;DHT22;4511;50.890;8.054;2024-02-23T08:32:45;5.50;99.70
8953;DHT22;4511;50.890;8.054;2024-02-23T08:35:12;5.50;98.90
8953;DHT22;4511;50.890;8.054;2024-02-23T08:37:40;5.60;94.80
8953;DHT22;4511;50.890;8.054;2024-02-23T08:40:08;5.60;99.90
8953;DHT22;4511;50.890;8.054;2024-02-23T08:42:35;5.70;93.10
8953;DHT22;4511;50.890;8.054;2024-02-23T08:45:04;5.70;78.30
8953;DHT22;4511;50.890;8.054;2024-02-23T08:47:31;5.80;96.00
8953;DHT22;4511;50.890;8.054;2024-02-23T08:50:00;5.80;64.90
8953;DHT22;4511;50.890;8.054;2024-02-23T08:52:27;5.80;70.20
8953;DHT22;4511;50.890;8.054;2024-02-23T08:54:54;5.80;59.00
8953;DHT22;4511;50.890;8.054;2024-02-23T08:57:20;5.90;53.70
8953;DHT22;4511;50.890;8.054;2024-02-23T08:59:48;5.90;47.00
8953;DHT22;4511;50.890;8.054;2024-02-23T09:02:16;5.90;42.90
8953;DHT22;4511;50.890;8.054;2024-02-23T09:04:43;5.90;47.70
8953;DHT22;4511;50.890;8.054;2024-02-23T09:07:10;5.90;52.90
8953;DHT22;4511;50.890;8.054;2024-02-23T09:09:37;6.00;54.30
8953;DHT22;4511;50.890;8.054;2024-02-23T09:12:04;5.90;52.90
8953;DHT22;4511;50.890;8.054;2024-02-23T09:14:32;6.00;35.60
8953;DHT22;4511;50.890;8.054;2024-02-23T09:17:00;6.00;53.60
8953;DHT22;4511;50.890;8.054;2024-02-23T09:19:28;6.00;56.20
8953;DHT22;4511;50.890;8.054;2024-02-23T09:21:55;6.00;56.10
8953;DHT22;4511;50.890;8.054;2024-02-23T09:24:22;6.10;49.60
8953;DHT22;4511;50.890;8.054;2024-02-23T09:26:48;6.10;47.50
8953;DHT22;4511;50.890;8.054;2024-02-23T09:29:15;6.20;55.90
8953;DHT22;4511;50.890;8.054;2024-02-23T09:31:42;6.30;51.60
8953;DHT22;4511;50.890;8.054;2024-02-23T09:34:08;6.40;46.70
8953;DHT22;4511;50.890;8.054;2024-02-23T09:36:36;6.40;51.00
8953;DHT22;4511;50.890;8.054;2024-02-23T09:39:03;6.80;42.30
8953;DHT22;4511;50.890;8.054;2024-02-23T09:41:31;6.90;41.00
8953;DHT22;4511;50.890;8.054;2024-02-23T09:44:01;7.00;11.40
8953;DHT22;4511;50.890;8.054;2024-02-23T09:46:29;7.10;16.40
8953;DHT22;4511;50.890;8.054;2024-02-23T09:48:56;7.30;7.50
8953;DHT22;4511;50.890;8.054;2024-02-23T09:51:25;7.40;1.00
8953;DHT22;4511;50.890;8.054;2024-02-23T09:53:53;7.40;1.00
8953;DHT22;4511;50.890;8.054;2024-02-23T09:56:22;7.40;1.00
8953;DHT22;4511;50.890;8.054;2024-02-23T09:58:50;7.30;1.00
8953;DHT22;4511;50.890;8.054;2024-02-23T10:01:27;7.60;1.00
8953;DHT22;4511;50.890;8.054;2024-02-23T10:03:54;7.60;1.00
8953;DHT22;4511;50.890;8.054;2024-02-23T10:06:22;7.50;1.00
8953;DHT22;4511;50.890;8.054;2024-02-23T10:08:49;7.50;1.00
8953;DHT22;4511;50.890;8.054;2024-02-23T10:11:20;7.60;1.00
8953;DHT22;4511;50.890;8.054;2024-02-23T10:13:47;7.60;1.00
8953;DHT22;4511;50.890;8.054;2024-02-23T10:16:15;7.50;1.00
8953;DHT22;4511;50.890;8.054;2024-02-23T10:18:42;7.50;1.00
8953;DHT22;4511;50.890;8.054;2024-02-23T10:21:08;7.50;1.00
8953;DHT22;4511;50.890;8.054;2024-02-23T10:23:35;7.40;1.00
8953;DHT22;4511;50.890;8.054;2024-02-23T10:26:04;7.30;1.00
8953;DHT22;4511;50.890;8.054;2024-02-23T10:28:32;7.20;1.00
8953;DHT22;4511;50.890;8.054;2024-02-23T10:31:00;7.20;1.00
8953;DHT22;4511;50.890;8.054;2024-02-23T10:33:27;7.20;1.00
8953;DHT22;4511;50.890;8.054;2024-02-23T10:35:56;7.30;1.00
8953;DHT22;4511;50.890;8.054;2024-02-23T10:38:23;7.60;1.00
8953;DHT22;4511;50.890;8.054;2024-02-23T10:40:54;7.80;1.00
8953;DHT22;4511;50.890;8.054;2024-02-23T10:43:25;7.80;1.00
8953;DHT22;4511;50.890;8.054;2024-02-23T10:45:56;7.90;1.00
8953;DHT22;4511;50.890;8.054;2024-02-23T10:48:24;8.10;1.00
8953;DHT22;4511;50.890;8.054;2024-02-23T10:50:51;8.00;1.00
8953;DHT22;4511;50.890;8.054;2024-02-23T10:53:19;7.80;1.00
8953;DHT22;4511;50.890;8.054;2024-02-23T10:55:46;8.10;1.00
8953;DHT22;4511;50.890;8.054;2024-02-23T10:58:15;8.10;1.00
8953;DHT22;4511;50.890;8.054;2024-02-23T11:00:41;8.20;1.00
8953;DHT22;4511;50.890;8.054;2024-02-23T11:03:13;8.20;1.00
8953;DHT22;4511;50.890;8.054;2024-02-23T11:05:41;8.00;1.00
8953;DHT22;4511;50.890;8.054;2024-02-23T11:08:08;8.10;1.00
8953;DHT22;4511;50.890;8.054;2024-02-23T11:10:42;8.30;1.00
8953;DHT22;4511;50.890;8.054;2024-02-23T11:13:08;8.40;1.00
8953;DHT22;4511;50.890;8.054;2024-02-23T11:15:35;8.20;1.00
8953;DHT22;4511;50.890;8.054;2024-02-23T11:18:22;9.00;44.80
8953;DHT22;4511;50.890;8.054;2024-02-23T11:20:54;8.80;1.00
8953;DHT22;4511;50.890;8.054;2024-02-23T11:23:21;8.90;1.00
8953;DHT22;4511;50.890;8.054;2024-02-23T11:25:59;8.80;1.00
8953;DHT22;4511;50.890;8.054;2024-02-23T11:28:26;8.90;1.00
8953;DHT22;4511;50.890;8.054;2024-02-23T11:30:53;8.80;1.00
8953;DHT22;4511;50.890;8.054;2024-02-23T11:33:27;8.50;1.00
8953;DHT22;4511;50.890;8.054;2024-02-23T11:35:53;8.40;1.00
8953;DHT22;4511;50.890;8.054;2024-02-23T11:38:31;8.20;1.00
8953;DHT22;4511;50.890;8.054;2024-02-23T11:40:59;8.30;1.00
8953;DHT22;4511;50.890;8.054;2024-02-23T11:43:26;8.40;1.00
8953;DHT22;4511;50.890;8.054;2024-02-23T11:45:54;8.30;1.00
8953;DHT22;4511;50.890;8.054;2024-02-23T11:48:20;8.30;1.00
8953;DHT22;4511;50.890;8.054;2024-02-23T11:50:50;8.20;1.00
8953;DHT22;4511;50.890;8.054;2024-02-23T11:53:16;8.20;1.00
8953;DHT22;4511;50.890;8.054;2024-02-23T11:55:44;8.30;1.00
8953;DHT22;4511;50.890;8.054;2024-02-23T11:58:11;8.60;1.00
8953;DHT22;4511;50.890;8.054;2024-02-23T12:00:39;8.70;1.00
8953;DHT22;4511;50.890;8.054;2024-02-23T12:03:06;9.10;1.00
8953;DHT22;4511;50.890;8.054;2024-02-23T12:05:34;9.10;1.00
8953;DHT22;4511;50.890;8.054;2024-02-23T12:08:02;9.40;1.00
8953;DHT22;4511;50.890;8.054;2024-02-23T12:10:30;9.50;1.00
8953;DHT22;4511;50.890;8.054;2024-02-23T12:12:57;9.40;1.00
8953;DHT22;4511;50.890;8.054;2024-02-23T12:15:24;9.60;1.00
8953;DHT22;4511;50.890;8.054;2024-02-23T12:17:52;9.60;1.00
8953;DHT22;4511;50.890;8.054;2024-02-23T12:20:19;10.10;1.00
8953;DHT22;4511;50.890;8.054;2024-02-23T12:22:47;10.10;1.00
8953;DHT22;4511;50.890;8.054;2024-02-23T12:25:15;9.80;1.00
8953;DHT22;4511;50.890;8.054;2024-02-23T12:27:42;9.20;1.00
8953;DHT22;4511;50.890;8.054;2024-02-23T12:30:13;9.50;1.00
8953;DHT22;4511;50.890;8.054;2024-02-23T12:32:40;9.50;1.00
8953;DHT22;4511;50.890;8.054;2024-02-23T12:35:07;9.50;1.00
8953;DHT22;4511;50.890;8.054;2024-02-23T12:37:37;9.30;1.00
8953;DHT22;4511;50.890;8.054;2024-02-23T12:40:05;9.10;1.00
8953;DHT22;4511;50.890;8.054;2024-02-23T12:42:34;9.00;1.00
8953;DHT22;4511;50.890;8.054;2024-02-23T12:45:00;8.90;1.00
8953;DHT22;4511;50.890;8.054;2024-02-23T12:47:27;9.00;1.00
8953;DHT22;4511;50.890;8.054;2024-02-23T12:49:54;9.00;1.00
8953;DHT22;4511;50.890;8.054;2024-02-23T12:52:20;9.00;1.00
8953;DHT22;4511;50.890;8.054;2024-02-23T12:54:47;9.10;1.00
8953;DHT22;4511;50.890;8.054;2024-02-23T12:57:14;9.10;1.00
8953;DHT22;4511;50.890;8.054;2024-02-23T12:59:42;9.00;1.00
8953;DHT22;4511;50.890;8.054;2024-02-23T13:02:11;9.10;1.00
8953;DHT22;4511;50.890;8.054;2024-02-23T13:04:38;8.90;1.00
8953;DHT22;4511;50.890;8.054;2024-02-23T13:07:06;8.70;1.00
8953;DHT22;4511;50.890;8.054;2024-02-23T13:09:32;8.40;1.00
8953;DHT22;4511;50.890;8.054;2024-02-23T13:11:59;8.10;1.00
8953;DHT22;4511;50.890;8.054;2024-02-23T13:14:26;8.20;1.00
8953;DHT22;4511;50.890;8.054;2024-02-23T13:16:54;8.40;1.00
8953;DHT22;4511;50.890;8.054;2024-02-23T13:19:20;8.50;1.00
8953;DHT22;4511;50.890;8.054;2024-02-23T13:21:47;8.60;1.00
8953;DHT22;4511;50.890;8.054;2024-02-23T13:24:14;9.30;1.00
8953;DHT22;4511;50.890;8.054;2024-02-23T13:26:41;10.10;1.00
8953;DHT22;4511;50.890;8.054;2024-02-23T13:29:08;11.00;1.00
8953;DHT22;4511;50.890;8.054;2024-02-23T13:31:35;11.20;1.00
8953;DHT22;4511;50.890;8.054;2024-02-23T13:34:06;11.20;1.00
8953;DHT22;4511;50.890;8.054;2024-02-23T13:36:32;11.80;1.00
8953;DHT22;4511;50.890;8.054;2024-02-23T13:38:59;11.30;1.00
8953;DHT22;4511;50.890;8.054;2024-02-23T13:41:26;10.80;1.00
8953;DHT22;4511;50.890;8.054;2024-02-23T13:43:53;10.40;1.00
8953;DHT22;4511;50.890;8.054;2024-02-23T13:46:20;10.10;1.00
8953;DHT22;4511;50.890;8.054;2024-02-23T13:49:01;9.90;1.00
8953;DHT22;4511;50.890;8.054;2024-02-23T13:51:29;9.70;1.00
8953;DHT22;4511;50.890;8.054;2024-02-23T13:53:56;9.50;1.00
8953;DHT22;4511;50.890;8.054;2024-02-23T13:56:22;9.70;1.00
8953;DHT22;4511;50.890;8.054;2024-02-23T13:58:49;10.10;1.00
8953;DHT22;4511;50.890;8.054;2024-02-23T14:01:16;10.60;1.00
8953;DHT22;4511;50.890;8.054;2024-02-23T14:03:43;10.80;1.00
8953;DHT22;4511;50.890;8.054;2024-02-23T14:06:09;10.80;1.00
8953;DHT22;4511;50.890;8.054;2024-02-23T14:08:37;10.90;1.00
8953;DHT22;4511;50.890;8.054;2024-02-23T14:11:04;11.00;1.00
8953;DHT22;4511;50.890;8.054;2024-02-23T14:13:32;11.00;1.00
8953;DHT22;4511;50.890;8.054;2024-02-23T14:15:59;10.90;1.00
8953;DHT22;4511;50.890;8.054;2024-02-23T14:18:26;10.80;1.00
8953;DHT22;4511;50.890;8.054;2024-02-23T14:20:53;10.50;1.00
8953;DHT22;4511;50.890;8.054;2024-02-23T14:23:19;10.30;1.00
8953;DHT22;4511;50.890;8.054;2024-02-23T14:25:47;10.10;1.00
8953;DHT22;4511;50.890;8.054;2024-02-23T14:28:14;9.80;1.00
8953;DHT22;4511;50.890;8.054;2024-02-23T14:30:41;9.60;1.00
8953;DHT22;4511;50.890;8.054;2024-02-23T14:33:08;9.50;1.00
8953;DHT22;4511;50.890;8.054;2024-02-23T14:35:35;9.60;1.00
8953;DHT22;4511;50.890;8.054;2024-02-23T14:38:01;9.50;1.00
8953;DHT22;4511;50.890;8.054;2024-02-23T14:40:28;9.40;1.00
8953;DHT22;4511;50.890;8.054;2024-02-23T14:42:56;9.40;1.00
8953;DHT22;4511;50.890;8.054;2024-02-23T14:45:25;9.60;1.00
8953;DHT22;4511;50.890;8.054;2024-02-23T14:47:53;9.80;1.00
8953;DHT22;4511;50.890;8.054;2024-02-23T14:50:20;9.60;1.00
8953;DHT22;4511;50.890;8.054;2024-02-23T14:52:46;9.50;1.00
8953;DHT22;4511;50.890;8.054;2024-02-23T14:55:13;9.40;1.00
8953;DHT22;4511;50.890;8.054;2024-02-23T14:57:40;9.50;1.00
8953;DHT22;4511;50.890;8.054;2024-02-23T15:00:09;9.50;1.00
8953;DHT22;4511;50.890;8.054;2024-02-23T15:02:36;9.30;1.00
8953;DHT22;4511;50.890;8.054;2024-02-23T15:05:04;9.10;1.00
8953;DHT22;4511;50.890;8.054;2024-02-23T15:07:31;9.10;1.00
8953;DHT22;4511;50.890;8.054;2024-02-23T15:09:58;8.80;1.00
8953;DHT22;4511;50.890;8.054;2024-02-23T15:12:28;8.70;1.00
8953;DHT22;4511;50.890;8.054;2024-02-23T15:14:54;8.80;1.00
8953;DHT22;4511;50.890;8.054;2024-02-23T15:17:23;8.90;1.00
8953;DHT22;4511;50.890;8.054;2024-02-23T15:19:49;9.00;1.00
8953;DHT22;4511;50.890;8.054;2024-02-23T15:22:16;9.20;1.00
8953;DHT22;4511;50.890;8.054;2024-02-23T15:24:44;8.80;1.00
8953;DHT22;4511;50.890;8.054;2024-02-23T15:27:14;8.80;1.00
8953;DHT22;4511;50.890;8.054;2024-02-23T15:29:41;8.80;1.00
8953;DHT22;4511;50.890;8.054;2024-02-23T15:32:08;8.80;1.00
8953;DHT22;4511;50.890;8.054;2024-02-23T15:34:37;8.70;1.00
8953;DHT22;4511;50.890;8.054;2024-02-23T15:37:04;8.60;1.00
8953;DHT22;4511;50.890;8.054;2024-02-23T15:39:31;8.50;1.00
8953;DHT22;4511;50.890;8.054;2024-02-23T15:41:58;8.50;1.00
8953;DHT22;4511;50.890;8.054;2024-02-23T15:44:25;8.60;1.00
8953;DHT22;4511;50.890;8.054;2024-02-23T15:46:52;8.60;1.00
8953;DHT22;4511;50.890;8.054;2024-02-23T15:49:18;8.50;1.00
8953;DHT22;4511;50.890;8.054;2024-02-23T15:55:03;8.80;1.00
8953;DHT22;4511;50.890;8.054;2024-02-23T15:57:30;9.10;1.00
8953;DHT22;4511;50.890;8.054;2024-02-23T15:59:57;9.40;1.00
8953;DHT22;4511;50.890;8.054;2024-02-23T16:02:23;9.80;1.00
8953;DHT22;4511;50.890;8.054;2024-02-23T16:04:51;10.90;1.00
8953;DHT22;4511;50.890;8.054;2024-02-23T16:07:17;11.90;1.00
8953;DHT22;4511;50.890;8.054;2024-02-23T16:09:44;13.60;1.00
8953;DHT22;4511;50.890;8.054;2024-02-23T16:12:13;15.10;1.00
8953;DHT22;4511;50.890;8.054;2024-02-23T16:14:39;16.10;1.00
8953;DHT22;4511;50.890;8.054;2024-02-23T16:17:06;16.20;1.00
8953;DHT22;4511;50.890;8.054;2024-02-23T16:19:33;16.00;1.00
8953;DHT22;4511;50.890;8.054;2024-02-23T16:21:59;15.90;1.00
8953;DHT22;4511;50.890;8.054;2024-02-23T16:24:26;16.10;1.00
8953;DHT22;4511;50.890;8.054;2024-02-23T16:26:53;16.30;1.00
8953;DHT22;4511;50.890;8.054;2024-02-23T16:29:21;14.80;1.00